createdAt,value
2018-08-17T00:00:24.896Z,988.1
2018-08-17T00:01:24.898Z,988.12
2018-08-17T00:02:24.900Z,988.07
2018-08-17T00:03:24.899Z,988.08
2018-08-17T00:04:24.909Z,988.08
2018-08-17T00:05:25.055Z,988.06
2018-08-17T00:06:24.911Z,988.07
2018-08-17T00:07:24.923Z,988.09
2018-08-17T00:08:24.914Z,988.06
2018-08-17T00:09:24.917Z,988.06
2018-08-17T00:10:24.919Z,988.05
2018-08-17T00:11:24.920Z,988.06
2018-08-17T00:12:24.922Z,988.07
2018-08-17T00:13:24.926Z,988.08
2018-08-17T00:14:24.925Z,988.08
2018-08-17T00:15:24.929Z,988.08
2018-08-17T00:16:24.933Z,988.11
2018-08-17T00:17:24.938Z,988.11
2018-08-17T00:18:24.933Z,988.12
2018-08-17T00:19:24.936Z,988.12
2018-08-17T00:20:24.939Z,988.12
2018-08-17T00:21:24.941Z,988.15
2018-08-17T00:22:24.941Z,988.12
2018-08-17T00:23:24.947Z,988.11
2018-08-17T00:24:24.960Z,988.1
2018-08-17T00:25:24.949Z,988.17
2018-08-17T00:26:24.950Z,988.1
2018-08-17T00:27:24.960Z,988.09
2018-08-17T00:28:24.966Z,988.08
2018-08-17T00:29:24.956Z,988.13
2018-08-17T00:30:24.956Z,988.08
2018-08-17T00:31:24.963Z,988.07
2018-08-17T00:32:24.970Z,988.08
2018-08-17T00:33:24.968Z,988.08
2018-08-17T00:34:24.977Z,988.09
2018-08-17T00:35:24.971Z,988.07
2018-08-17T00:36:24.969Z,988.07
2018-08-17T00:37:24.974Z,988.06
2018-08-17T00:38:24.971Z,988.06
2018-08-17T00:39:24.976Z,988.08
2018-08-17T00:40:24.985Z,988.03
2018-08-17T00:41:24.978Z,988.06
2018-08-17T00:42:24.981Z,988.02
2018-08-17T00:43:24.983Z,988.02
2018-08-17T00:44:24.995Z,988
2018-08-17T00:45:24.988Z,987.97
2018-08-17T00:46:24.986Z,987.98
2018-08-17T00:47:24.988Z,987.96
2018-08-17T00:48:24.993Z,987.99
2018-08-17T00:49:24.993Z,987.95
2018-08-17T00:50:24.995Z,988
2018-08-17T00:51:24.997Z,987.95
2018-08-17T00:52:25.009Z,987.98
2018-08-17T00:53:25.001Z,987.97
2018-08-17T00:54:25.006Z,987.95
2018-08-17T00:55:25.011Z,987.97
2018-08-17T00:56:25.005Z,987.98
2018-08-17T00:57:25.005Z,987.98
2018-08-17T00:58:25.008Z,987.98
2018-08-17T00:59:25.010Z,987.95
2018-08-17T01:00:25.017Z,987.93
2018-08-17T01:01:25.029Z,987.93
2018-08-17T01:02:25.016Z,987.94
2018-08-17T01:03:25.017Z,987.94
2018-08-17T01:04:25.019Z,987.94
2018-08-17T01:05:25.019Z,987.92
2018-08-17T01:06:25.022Z,987.88
2018-08-17T01:07:25.045Z,987.92
2018-08-17T01:08:25.023Z,987.9
2018-08-17T01:09:25.038Z,987.89
2018-08-17T01:10:25.041Z,987.91
2018-08-17T01:11:25.028Z,987.91
2018-08-17T01:12:25.052Z,987.93
2018-08-17T01:13:25.040Z,987.93
2018-08-17T01:14:25.043Z,987.91
2018-08-17T01:15:25.042Z,987.91
2018-08-17T01:16:25.044Z,987.88
2018-08-17T01:17:25.039Z,987.92
2018-08-17T01:18:25.046Z,987.9
2018-08-17T01:19:25.048Z,987.91
2018-08-17T01:20:25.044Z,987.87
2018-08-17T01:21:25.045Z,987.92
2018-08-17T01:22:25.051Z,987.88
2018-08-17T01:23:25.053Z,987.92
2018-08-17T01:24:25.049Z,987.85
2018-08-17T01:25:25.052Z,987.9
2018-08-17T01:26:25.066Z,987.86
2018-08-17T01:27:25.054Z,987.91
2018-08-17T01:28:25.068Z,987.91
2018-08-17T01:29:25.068Z,987.88
2018-08-17T01:30:25.071Z,987.88
2018-08-17T01:31:25.070Z,987.84
2018-08-17T01:32:25.074Z,987.84
2018-08-17T01:33:25.080Z,987.85
2018-08-17T01:34:25.071Z,987.87
2018-08-17T01:35:25.072Z,987.86
2018-08-17T01:36:25.075Z,987.83
2018-08-17T01:37:25.075Z,987.86
2018-08-17T01:38:25.083Z,987.85
2018-08-17T01:39:25.076Z,987.85
2018-08-17T01:40:25.079Z,987.85
2018-08-17T01:41:25.080Z,987.84
2018-08-17T01:42:25.084Z,987.86
2018-08-17T01:43:25.082Z,987.83
2018-08-17T01:44:25.089Z,987.85
2018-08-17T01:45:25.090Z,987.84
2018-08-17T01:46:25.088Z,987.83
2018-08-17T01:47:25.089Z,987.81
2018-08-17T01:48:25.090Z,987.82
2018-08-17T01:49:25.097Z,987.83
2018-08-17T01:50:25.096Z,987.79
2018-08-17T01:51:25.099Z,987.78
2018-08-17T01:52:25.098Z,987.79
2018-08-17T01:53:25.097Z,987.82
2018-08-17T01:54:25.102Z,987.81
2018-08-17T01:55:25.104Z,987.81
2018-08-17T01:56:25.106Z,987.8
2018-08-17T01:57:25.105Z,987.81
2018-08-17T01:58:25.109Z,987.83
2018-08-17T01:59:25.110Z,987.79
2018-08-17T02:00:25.110Z,987.83
2018-08-17T02:01:25.117Z,987.8
2018-08-17T02:02:25.113Z,987.77
2018-08-17T02:03:25.117Z,987.77
2018-08-17T02:04:25.119Z,987.77
2018-08-17T02:05:25.120Z,987.81
2018-08-17T02:06:25.120Z,987.79
2018-08-17T02:07:25.123Z,987.79
2018-08-17T02:08:25.124Z,987.8
2018-08-17T02:09:25.128Z,987.76
2018-08-17T02:10:25.128Z,987.74
2018-08-17T02:11:25.128Z,987.71
2018-08-17T02:12:25.130Z,987.73
2018-08-17T02:13:25.131Z,987.73
2018-08-17T02:14:25.134Z,987.72
2018-08-17T02:15:25.136Z,987.71
2018-08-17T02:16:25.137Z,987.69
2018-08-17T02:17:25.137Z,987.7
2018-08-17T02:18:25.138Z,987.7
2018-08-17T02:19:25.140Z,987.68
2018-08-17T02:20:25.143Z,987.65
2018-08-17T02:21:25.144Z,987.66
2018-08-17T02:22:25.145Z,987.73
2018-08-17T02:23:25.157Z,987.69
2018-08-17T02:24:25.219Z,987.71
2018-08-17T02:25:25.151Z,987.7
2018-08-17T02:26:25.152Z,987.7
2018-08-17T02:27:25.153Z,987.72
2018-08-17T02:28:25.154Z,987.66
2018-08-17T02:29:25.157Z,987.68
2018-08-17T02:30:25.160Z,987.7
2018-08-17T02:31:25.161Z,987.7
2018-08-17T02:32:25.164Z,987.71
2018-08-17T02:33:25.161Z,987.69
2018-08-17T02:34:25.170Z,987.67
2018-08-17T02:35:25.170Z,987.7
2018-08-17T02:36:25.167Z,987.7
2018-08-17T02:37:25.168Z,987.69
2018-08-17T02:38:25.168Z,987.64
2018-08-17T02:39:25.173Z,987.62
2018-08-17T02:40:25.173Z,987.61
2018-08-17T02:41:25.174Z,987.61
2018-08-17T02:42:25.176Z,987.59
2018-08-17T02:43:25.176Z,987.6
2018-08-17T02:44:25.181Z,987.57
2018-08-17T02:45:25.182Z,987.59
2018-08-17T02:46:25.186Z,987.59
2018-08-17T02:47:25.185Z,987.55
2018-08-17T02:48:25.354Z,987.56
2018-08-17T02:49:25.183Z,987.53
2018-08-17T02:50:25.186Z,987.54
2018-08-17T02:51:25.192Z,987.51
2018-08-17T02:52:25.192Z,987.55
2018-08-17T02:53:25.194Z,987.51
2018-08-17T02:54:25.192Z,987.52
2018-08-17T02:55:25.210Z,987.54
2018-08-17T02:56:25.194Z,987.51
2018-08-17T02:57:25.203Z,987.53
2018-08-17T02:58:25.200Z,987.53
2018-08-17T02:59:25.248Z,987.55
2018-08-17T03:00:25.201Z,987.54
2018-08-17T03:01:25.204Z,987.54
2018-08-17T03:02:25.201Z,987.56
2018-08-17T03:03:25.212Z,987.52
2018-08-17T03:04:25.205Z,987.54
2018-08-17T03:05:25.212Z,987.54
2018-08-17T03:06:25.217Z,987.54
2018-08-17T03:07:25.213Z,987.54
2018-08-17T03:08:25.210Z,987.51
2018-08-17T03:09:25.213Z,987.55
2018-08-17T03:10:25.215Z,987.55
2018-08-17T03:11:25.217Z,987.53
2018-08-17T03:12:25.228Z,987.51
2018-08-17T03:13:25.219Z,987.54
2018-08-17T03:14:25.217Z,987.54
2018-08-17T03:15:25.221Z,987.54
2018-08-17T03:16:25.225Z,987.61
2018-08-17T03:17:25.221Z,987.58
2018-08-17T03:18:25.476Z,987.59
2018-08-17T03:19:25.227Z,987.59
2018-08-17T03:20:25.230Z,987.58
2018-08-17T03:21:25.231Z,987.59
2018-08-17T03:22:25.235Z,987.6
2018-08-17T03:23:25.232Z,987.57
2018-08-17T03:24:25.233Z,987.59
2018-08-17T03:25:25.234Z,987.58
2018-08-17T03:26:25.236Z,987.58
2018-08-17T03:27:25.241Z,987.62
2018-08-17T03:28:25.237Z,987.58
2018-08-17T03:29:25.239Z,987.6
2018-08-17T03:30:25.256Z,987.62
2018-08-17T03:31:25.248Z,987.61
2018-08-17T03:32:25.243Z,987.63
2018-08-17T03:33:25.246Z,987.64
2018-08-17T03:34:25.247Z,987.65
2018-08-17T03:35:25.246Z,987.67
2018-08-17T03:36:25.251Z,987.67
2018-08-17T03:37:25.252Z,987.7
2018-08-17T03:38:26.064Z,987.66
2018-08-17T03:39:25.264Z,987.69
2018-08-17T03:40:25.262Z,987.72
2018-08-17T03:41:25.257Z,987.73
2018-08-17T03:42:25.260Z,987.71
2018-08-17T03:43:25.258Z,987.74
2018-08-17T03:44:25.261Z,987.76
2018-08-17T03:45:25.322Z,987.7
2018-08-17T03:46:25.269Z,987.77
2018-08-17T03:47:25.263Z,987.75
2018-08-17T03:48:25.514Z,987.74
2018-08-17T03:49:25.289Z,987.77
2018-08-17T03:50:25.267Z,987.74
2018-08-17T03:51:25.269Z,987.8
2018-08-17T03:52:25.270Z,987.78
2018-08-17T03:53:25.271Z,987.78
2018-08-17T03:54:25.284Z,987.78
2018-08-17T03:55:25.276Z,987.78
2018-08-17T03:56:25.275Z,987.81
2018-08-17T03:57:25.275Z,987.84
2018-08-17T03:58:25.275Z,987.86
2018-08-17T03:59:25.278Z,987.87
2018-08-17T04:00:25.288Z,987.88
2018-08-17T04:01:25.281Z,987.87
2018-08-17T04:02:25.283Z,987.89
2018-08-17T04:03:25.282Z,987.88
2018-08-17T04:04:25.281Z,987.9
2018-08-17T04:05:25.284Z,987.91
2018-08-17T04:06:25.285Z,987.93
2018-08-17T04:07:25.299Z,987.91
2018-08-17T04:08:25.289Z,987.95
2018-08-17T04:09:25.291Z,988.01
2018-08-17T04:10:25.292Z,987.99
2018-08-17T04:11:25.292Z,988
2018-08-17T04:12:25.294Z,988.02
2018-08-17T04:13:25.294Z,988.05
2018-08-17T04:14:25.296Z,988.05
2018-08-17T04:15:25.328Z,988.05
2018-08-17T04:16:25.300Z,988.08
2018-08-17T04:17:25.302Z,988.07
2018-08-17T04:18:26.352Z,988.06
2018-08-17T04:19:25.306Z,988.1
2018-08-17T04:20:25.302Z,988.08
2018-08-17T04:21:25.302Z,988.07
2018-08-17T04:22:25.305Z,988.09
2018-08-17T04:23:25.302Z,988.08
2018-08-17T04:24:25.307Z,988.08
2018-08-17T04:25:25.310Z,988.12
2018-08-17T04:26:25.321Z,988.13
2018-08-17T04:27:25.310Z,988.13
2018-08-17T04:28:25.310Z,988.16
2018-08-17T04:29:25.316Z,988.15
2018-08-17T04:30:25.312Z,988.16
2018-08-17T04:31:25.313Z,988.18
2018-08-17T04:32:25.317Z,988.16
2018-08-17T04:33:25.334Z,988.18
2018-08-17T04:34:25.326Z,988.2
2018-08-17T04:35:25.336Z,988.15
2018-08-17T04:36:25.326Z,988.15
2018-08-17T04:37:25.324Z,988.18
2018-08-17T04:38:25.318Z,988.17
2018-08-17T04:39:25.360Z,988.18
2018-08-17T04:40:25.323Z,988.15
2018-08-17T04:41:25.326Z,988.21
2018-08-17T04:42:25.325Z,988.14
2018-08-17T04:43:25.326Z,988.16
2018-08-17T04:44:25.330Z,988.13
2018-08-17T04:45:25.330Z,988.13
2018-08-17T04:46:25.333Z,988.18
2018-08-17T04:47:25.333Z,988.13
2018-08-17T04:48:25.343Z,988.15
2018-08-17T04:49:25.435Z,988.17
2018-08-17T04:50:25.335Z,988.22
2018-08-17T04:51:25.337Z,988.21
2018-08-17T04:52:25.338Z,988.19
2018-08-17T04:53:25.340Z,988.26
2018-08-17T04:54:25.345Z,988.25
2018-08-17T04:55:25.343Z,988.25
2018-08-17T04:56:25.344Z,988.28
2018-08-17T04:57:25.347Z,988.3
2018-08-17T04:58:25.348Z,988.32
2018-08-17T04:59:25.349Z,988.3
2018-08-17T05:00:25.352Z,988.31
2018-08-17T05:01:25.353Z,988.3
2018-08-17T05:02:25.356Z,988.28
2018-08-17T05:03:25.464Z,988.28
2018-08-17T05:04:25.358Z,988.32
2018-08-17T05:05:25.362Z,988.28
2018-08-17T05:06:25.364Z,988.28
2018-08-17T05:07:25.373Z,988.29
2018-08-17T05:08:25.368Z,988.3
2018-08-17T05:09:25.371Z,988.26
2018-08-17T05:10:25.376Z,988.26
2018-08-17T05:11:25.377Z,988.27
2018-08-17T05:12:25.378Z,988.29
2018-08-17T05:13:25.386Z,988.29
2018-08-17T05:14:25.383Z,988.25
2018-08-17T05:15:25.387Z,988.29
2018-08-17T05:16:25.387Z,988.3
2018-08-17T05:17:25.398Z,988.35
2018-08-17T05:18:25.395Z,988.35
2018-08-17T05:19:25.404Z,988.34
2018-08-17T05:20:25.396Z,988.36
2018-08-17T05:21:25.400Z,988.35
2018-08-17T05:22:25.401Z,988.42
2018-08-17T05:23:25.504Z,988.46
2018-08-17T05:24:25.417Z,988.42
2018-08-17T05:25:25.406Z,988.5
2018-08-17T05:26:25.408Z,988.5
2018-08-17T05:27:25.412Z,988.54
2018-08-17T05:28:25.411Z,988.54
2018-08-17T05:29:25.429Z,988.55
2018-08-17T05:30:25.420Z,988.47
2018-08-17T05:31:25.423Z,988.49
2018-08-17T05:32:25.426Z,988.44
2018-08-17T05:33:25.428Z,988.48
2018-08-17T05:34:25.428Z,988.45
2018-08-17T05:35:25.443Z,988.39
2018-08-17T05:36:25.435Z,988.35
2018-08-17T05:37:25.438Z,988.39
2018-08-17T05:38:25.448Z,988.35
2018-08-17T05:39:25.458Z,988.36
2018-08-17T05:40:25.446Z,988.4
2018-08-17T05:41:25.454Z,988.38
2018-08-17T05:42:25.459Z,988.43
2018-08-17T05:43:25.463Z,988.42
2018-08-17T05:44:25.461Z,988.47
2018-08-17T05:45:25.465Z,988.4
2018-08-17T05:46:25.469Z,988.44
2018-08-17T05:47:25.476Z,988.41
2018-08-17T05:48:25.477Z,988.4
2018-08-17T05:49:25.732Z,988.42
2018-08-17T05:50:25.487Z,988.45
2018-08-17T05:51:25.487Z,988.47
2018-08-17T05:52:25.488Z,988.48
2018-08-17T05:53:25.494Z,988.46
2018-08-17T05:54:25.495Z,988.48
2018-08-17T05:55:25.499Z,988.49
2018-08-17T05:56:25.501Z,988.47
2018-08-17T05:57:25.521Z,988.53
2018-08-17T05:58:25.509Z,988.52
2018-08-17T05:59:25.513Z,988.48
2018-08-17T06:00:25.515Z,988.42
2018-08-17T06:01:25.516Z,988.42
2018-08-17T06:02:25.519Z,988.51
2018-08-17T06:03:25.524Z,988.54
2018-08-17T06:04:25.536Z,988.51
2018-08-17T06:05:25.531Z,988.53
2018-08-17T06:06:25.532Z,988.52
2018-08-17T06:07:25.535Z,988.55
2018-08-17T06:08:25.537Z,988.58
2018-08-17T06:09:25.544Z,988.56
2018-08-17T06:10:25.545Z,988.56
2018-08-17T06:11:25.667Z,988.54
2018-08-17T06:12:25.554Z,988.64
2018-08-17T06:13:25.553Z,988.63
2018-08-17T06:14:25.557Z,988.62
2018-08-17T06:15:25.583Z,988.64
2018-08-17T06:16:25.566Z,988.62
2018-08-17T06:17:25.566Z,988.64
2018-08-17T06:18:25.570Z,988.69
2018-08-17T06:19:25.821Z,988.68
2018-08-17T06:20:25.574Z,988.67
2018-08-17T06:21:25.574Z,988.68
2018-08-17T06:22:25.588Z,988.71
2018-08-17T06:23:25.580Z,988.74
2018-08-17T06:24:25.585Z,988.68
2018-08-17T06:25:25.598Z,988.71
2018-08-17T06:26:25.589Z,988.67
2018-08-17T06:27:25.590Z,988.69
2018-08-17T06:28:25.592Z,988.66
2018-08-17T06:29:25.596Z,988.71
2018-08-17T06:30:25.599Z,988.71
2018-08-17T06:31:25.597Z,988.68
2018-08-17T06:32:25.602Z,988.69
2018-08-17T06:33:25.606Z,988.69
2018-08-17T06:34:25.607Z,988.72
2018-08-17T06:35:25.608Z,988.71
2018-08-17T06:36:25.609Z,988.7
2018-08-17T06:37:25.718Z,988.75
2018-08-17T06:38:25.617Z,988.78
2018-08-17T06:39:25.623Z,988.78
2018-08-17T06:40:25.659Z,988.81
2018-08-17T06:41:25.624Z,988.81
2018-08-17T06:42:25.628Z,988.79
2018-08-17T06:43:25.630Z,988.91
2018-08-17T06:44:25.632Z,988.83
2018-08-17T06:45:25.634Z,988.81
2018-08-17T06:46:25.639Z,988.81
2018-08-17T06:47:25.640Z,988.84
2018-08-17T06:48:25.643Z,988.88
2018-08-17T06:49:26.694Z,988.86
2018-08-17T06:50:25.645Z,988.83
2018-08-17T06:51:25.650Z,988.79
2018-08-17T06:52:25.655Z,988.8
2018-08-17T06:53:25.655Z,988.76
2018-08-17T06:54:25.663Z,988.79
2018-08-17T06:55:25.663Z,988.8
2018-08-17T06:56:25.668Z,988.82
2018-08-17T06:57:25.675Z,988.79
2018-08-17T06:58:25.682Z,988.86
2018-08-17T06:59:25.680Z,988.86
2018-08-17T07:00:25.683Z,988.84
2018-08-17T07:01:25.689Z,988.89
2018-08-17T07:02:25.704Z,988.85
2018-08-17T07:03:25.700Z,988.84
2018-08-17T07:04:25.704Z,988.89
2018-08-17T07:05:25.719Z,988.79
2018-08-17T07:06:25.723Z,988.79
2018-08-17T07:07:25.722Z,988.8
2018-08-17T07:08:25.727Z,988.85
2018-08-17T07:09:25.738Z,988.82
2018-08-17T07:10:25.751Z,988.81
2018-08-17T07:11:25.746Z,988.79
2018-08-17T07:12:25.771Z,988.78
2018-08-17T07:13:25.757Z,988.81
2018-08-17T07:14:25.764Z,988.78
2018-08-17T07:15:25.772Z,988.81
2018-08-17T07:16:25.780Z,988.82
2018-08-17T07:17:25.783Z,988.8
2018-08-17T07:18:25.790Z,988.81
2018-08-17T07:19:25.796Z,988.83
2018-08-17T07:20:25.813Z,988.8
2018-08-17T07:21:25.807Z,988.77
2018-08-17T07:22:25.813Z,988.78
2018-08-17T07:23:25.830Z,988.8
2018-08-17T07:24:25.826Z,988.8
2018-08-17T07:25:25.840Z,988.78
2018-08-17T07:26:25.849Z,988.78
2018-08-17T07:27:25.855Z,988.74
2018-08-17T07:28:25.875Z,988.74
2018-08-17T07:29:25.873Z,988.77
2018-08-17T07:30:25.886Z,988.79
2018-08-17T07:31:25.886Z,988.75
2018-08-17T07:32:25.893Z,988.73
2018-08-17T07:33:25.898Z,988.78
2018-08-17T07:34:25.907Z,988.74
2018-08-17T07:35:25.913Z,988.73
2018-08-17T07:36:25.927Z,988.72
2018-08-17T07:37:25.937Z,988.74
2018-08-17T07:38:25.938Z,988.76
2018-08-17T07:39:25.949Z,988.8
2018-08-17T07:40:25.954Z,988.81
2018-08-17T07:41:25.964Z,988.84
2018-08-17T07:42:25.971Z,988.9
2018-08-17T07:43:25.975Z,988.85
2018-08-17T07:44:25.984Z,988.86
2018-08-17T07:45:25.991Z,988.79
2018-08-17T07:46:25.997Z,988.8
2018-08-17T07:47:26.003Z,988.79
2018-08-17T07:48:26.009Z,988.79
2018-08-17T07:49:26.124Z,988.82
2018-08-17T07:50:26.023Z,988.84
2018-08-17T07:51:26.050Z,988.85
2018-08-17T07:52:26.043Z,988.91
2018-08-17T07:53:26.045Z,988.9
2018-08-17T07:54:26.049Z,988.91
2018-08-17T07:55:26.062Z,988.91
2018-08-17T07:56:26.061Z,988.94
2018-08-17T07:57:26.071Z,989
2018-08-17T07:58:26.072Z,988.95
2018-08-17T07:59:26.081Z,988.98
2018-08-17T08:00:26.089Z,989.03
2018-08-17T08:01:26.094Z,988.98
2018-08-17T08:02:26.102Z,988.98
2018-08-17T08:03:26.109Z,988.99
2018-08-17T08:04:26.131Z,988.97
2018-08-17T08:05:26.124Z,989.01
2018-08-17T08:06:26.127Z,988.99
2018-08-17T08:07:26.145Z,988.97
2018-08-17T08:08:26.142Z,989.02
2018-08-17T08:09:26.149Z,989.03
2018-08-17T08:10:26.157Z,989.03
2018-08-17T08:11:26.165Z,989.03
2018-08-17T08:12:26.170Z,989.09
2018-08-17T08:13:26.193Z,989.12
2018-08-17T08:14:26.185Z,989.12
2018-08-17T08:15:26.202Z,989.12
2018-08-17T08:16:26.210Z,989.09
2018-08-17T08:17:26.209Z,989.06
2018-08-17T08:18:26.218Z,989.13
2018-08-17T08:19:26.225Z,989.1
2018-08-17T08:20:26.314Z,989.14
2018-08-17T08:21:26.244Z,989.11
2018-08-17T08:22:26.247Z,989.14
2018-08-17T08:23:26.256Z,989.12
2018-08-17T08:24:26.265Z,989.15
2018-08-17T08:25:26.276Z,989.07
2018-08-17T08:26:26.294Z,989.1
2018-08-17T08:27:26.296Z,989.1
2018-08-17T08:28:26.300Z,989.12
2018-08-17T08:29:26.314Z,989.14
2018-08-17T08:30:26.319Z,989.18
2018-08-17T08:31:26.325Z,989.11
2018-08-17T08:32:26.394Z,989.18
2018-08-17T08:33:26.354Z,989.16
2018-08-17T08:34:26.359Z,989.15
2018-08-17T08:35:26.367Z,989.17
2018-08-17T08:36:26.376Z,989.19
2018-08-17T08:37:26.395Z,989.19
2018-08-17T08:38:26.395Z,989.15
2018-08-17T08:39:26.424Z,989.16
2018-08-17T08:40:26.408Z,989.16
2018-08-17T08:41:26.416Z,989.16
2018-08-17T08:42:26.423Z,989.19
2018-08-17T08:43:26.435Z,989.2
2018-08-17T08:44:26.444Z,989.21
2018-08-17T08:45:26.527Z,989.19
2018-08-17T08:46:26.461Z,989.21
2018-08-17T08:47:26.468Z,989.24
2018-08-17T08:48:26.478Z,989.25
2018-08-17T08:49:26.485Z,989.26
2018-08-17T08:50:26.494Z,989.3
2018-08-17T08:51:26.517Z,989.24
2018-08-17T08:52:26.512Z,989.24
2018-08-17T08:53:26.521Z,989.24
2018-08-17T08:54:26.531Z,989.25
2018-08-17T08:55:26.539Z,989.21
2018-08-17T08:56:26.547Z,989.25
2018-08-17T08:57:26.555Z,989.2
2018-08-17T08:58:26.611Z,989.18
2018-08-17T08:59:26.569Z,989.2
2018-08-17T09:00:26.581Z,989.24
2018-08-17T09:01:26.585Z,989.25
2018-08-17T09:02:26.591Z,989.22
2018-08-17T09:03:26.601Z,989.24
2018-08-17T09:04:26.605Z,989.23
2018-08-17T09:05:26.615Z,989.26
2018-08-17T09:06:26.620Z,989.25
2018-08-17T09:07:26.638Z,989.23
2018-08-17T09:08:26.632Z,989.22
2018-08-17T09:09:26.640Z,989.25
2018-08-17T09:10:26.646Z,989.26
2018-08-17T09:11:26.652Z,989.24
2018-08-17T09:12:26.659Z,989.27
2018-08-17T09:13:26.665Z,989.33
2018-08-17T09:14:26.681Z,989.33
2018-08-17T09:15:26.682Z,989.33
2018-08-17T09:16:26.685Z,989.34
2018-08-17T09:17:26.700Z,989.33
2018-08-17T09:18:26.702Z,989.24
2018-08-17T09:19:26.704Z,989.31
2018-08-17T09:20:28.659Z,989.34
2018-08-17T09:21:26.717Z,989.32
2018-08-17T09:22:26.721Z,989.36
2018-08-17T09:23:26.731Z,989.34
2018-08-17T09:24:26.736Z,989.38
2018-08-17T09:25:26.738Z,989.38
2018-08-17T09:26:26.756Z,989.35
2018-08-17T09:27:26.751Z,989.31
2018-08-17T09:28:26.767Z,989.29
2018-08-17T09:29:26.765Z,989.26
2018-08-17T09:30:26.770Z,989.25
2018-08-17T09:31:26.776Z,989.18
2018-08-17T09:32:26.785Z,989.22
2018-08-17T09:33:26.788Z,989.16
2018-08-17T09:34:26.796Z,989.22
2018-08-17T09:35:26.802Z,989.19
2018-08-17T09:36:26.807Z,989.19
2018-08-17T09:37:26.811Z,989.2
2018-08-17T09:38:26.825Z,989.16
2018-08-17T09:39:26.829Z,989.19
2018-08-17T09:40:26.843Z,989.19
2018-08-17T09:41:26.836Z,989.19
2018-08-17T09:42:26.844Z,989.18
2018-08-17T09:43:26.869Z,989.2
2018-08-17T09:44:26.865Z,989.22
2018-08-17T09:45:26.874Z,989.19
2018-08-17T09:46:26.866Z,989.21
2018-08-17T09:47:26.879Z,989.14
2018-08-17T09:48:26.883Z,989.17
2018-08-17T09:49:26.888Z,989.16
2018-08-17T09:50:26.891Z,989.18
2018-08-17T09:51:27.001Z,989.13
2018-08-17T09:52:26.917Z,989.12
2018-08-17T09:53:26.952Z,989.14
2018-08-17T09:54:26.932Z,989.12
2018-08-17T09:55:26.935Z,989.15
2018-08-17T09:56:26.949Z,989.11
2018-08-17T09:57:27.021Z,989.05
2018-08-17T09:58:26.946Z,989.05
2018-08-17T09:59:26.944Z,989.05
2018-08-17T10:00:26.953Z,989.07
2018-08-17T10:01:26.961Z,989.09
2018-08-17T10:02:26.962Z,989.08
2018-08-17T10:03:26.966Z,989.07
2018-08-17T10:04:26.974Z,989.09
2018-08-17T10:05:26.981Z,989.05
2018-08-17T10:06:26.985Z,989.04
2018-08-17T10:07:26.992Z,989.05
2018-08-17T10:08:26.998Z,989.04
2018-08-17T10:09:27.003Z,989.05
2018-08-17T10:10:27.068Z,989.02
2018-08-17T10:11:27.016Z,989.05
2018-08-17T10:12:27.018Z,989.04
2018-08-17T10:13:27.029Z,989.02
2018-08-17T10:14:27.033Z,989.03
2018-08-17T10:15:27.049Z,989.06
2018-08-17T10:16:27.042Z,989.05
2018-08-17T10:17:27.060Z,989.02
2018-08-17T10:18:27.054Z,989.03
2018-08-17T10:19:27.059Z,989.05
2018-08-17T10:20:27.071Z,989.03
2018-08-17T10:21:27.523Z,989.03
2018-08-17T10:22:27.079Z,989.04
2018-08-17T10:23:27.084Z,989
2018-08-17T10:24:27.087Z,989.02
2018-08-17T10:25:27.093Z,989.02
2018-08-17T10:26:27.099Z,988.97
2018-08-17T10:27:27.104Z,989
2018-08-17T10:28:27.109Z,988.93
2018-08-17T10:29:27.121Z,988.95
2018-08-17T10:30:27.124Z,988.93
2018-08-17T10:31:27.129Z,988.92
2018-08-17T10:32:27.132Z,989.01
2018-08-17T10:33:27.141Z,988.99
2018-08-17T10:34:27.146Z,988.95
2018-08-17T10:35:27.150Z,988.95
2018-08-17T10:36:27.162Z,988.98
2018-08-17T10:37:27.162Z,988.98
2018-08-17T10:38:27.168Z,988.97
2018-08-17T10:39:27.174Z,988.99
2018-08-17T10:40:27.178Z,988.97
2018-08-17T10:41:27.187Z,988.97
2018-08-17T10:42:27.207Z,989.04
2018-08-17T10:43:27.211Z,989
2018-08-17T10:44:27.202Z,989.01
2018-08-17T10:45:27.207Z,989.05
2018-08-17T10:46:27.214Z,988.98
2018-08-17T10:47:27.233Z,989.08
2018-08-17T10:48:27.230Z,989.06
2018-08-17T10:49:27.230Z,989.03
2018-08-17T10:50:27.236Z,989.02
2018-08-17T10:51:27.494Z,989.01
2018-08-17T10:52:27.249Z,988.99
2018-08-17T10:53:27.261Z,988.98
2018-08-17T10:54:27.276Z,988.93
2018-08-17T10:55:27.291Z,989.01
2018-08-17T10:56:27.275Z,988.96
2018-08-17T10:57:27.281Z,988.98
2018-08-17T10:58:27.304Z,988.98
2018-08-17T10:59:27.297Z,988.99
2018-08-17T11:00:27.313Z,988.97
2018-08-17T11:01:27.315Z,988.98
2018-08-17T11:02:27.314Z,988.95
2018-08-17T11:03:27.324Z,988.93
2018-08-17T11:04:27.320Z,988.91
2018-08-17T11:05:27.326Z,988.86
2018-08-17T11:06:27.326Z,988.89
2018-08-17T11:07:27.336Z,988.89
2018-08-17T11:08:27.338Z,988.91
2018-08-17T11:09:27.348Z,988.93
2018-08-17T11:10:27.353Z,988.95
2018-08-17T11:11:27.365Z,988.99
2018-08-17T11:12:27.369Z,989.02
2018-08-17T11:13:27.421Z,989.07
2018-08-17T11:14:27.446Z,989.03
2018-08-17T11:15:27.382Z,989.08
2018-08-17T11:16:27.389Z,988.95
2018-08-17T11:17:27.396Z,988.9
2018-08-17T11:18:27.409Z,988.86
2018-08-17T11:19:27.408Z,988.83
2018-08-17T11:20:27.412Z,988.86
2018-08-17T11:21:27.419Z,988.77
2018-08-17T11:22:27.426Z,988.78
2018-08-17T11:23:27.426Z,988.76
2018-08-17T11:24:27.445Z,988.76
2018-08-17T11:25:27.437Z,988.79
2018-08-17T11:26:27.449Z,988.8
2018-08-17T11:27:27.452Z,988.75
2018-08-17T11:28:27.492Z,988.74
2018-08-17T11:29:27.474Z,988.72
2018-08-17T11:30:27.468Z,988.74
2018-08-17T11:31:27.476Z,988.71
2018-08-17T11:32:27.482Z,988.7
2018-08-17T11:33:27.491Z,988.72
2018-08-17T11:34:27.540Z,988.77
2018-08-17T11:35:27.501Z,988.77
2018-08-17T11:36:27.542Z,988.77
2018-08-17T11:37:27.515Z,988.8
2018-08-17T11:38:27.538Z,988.82
2018-08-17T11:39:27.536Z,988.83
2018-08-17T11:40:27.532Z,988.84
2018-08-17T11:41:27.550Z,988.9
2018-08-17T11:42:27.545Z,988.89
2018-08-17T11:43:27.551Z,988.88
2018-08-17T11:44:27.560Z,988.91
2018-08-17T11:45:27.558Z,988.91
2018-08-17T11:46:27.565Z,988.92
2018-08-17T11:47:27.569Z,988.9
2018-08-17T11:48:27.577Z,988.92
2018-08-17T11:49:27.599Z,988.94
2018-08-17T11:50:27.594Z,988.93
2018-08-17T11:51:27.600Z,988.98
2018-08-17T11:52:27.607Z,989.04
2018-08-17T11:53:27.626Z,989.01
2018-08-17T11:54:27.610Z,989.04
2018-08-17T11:55:27.625Z,989.08
2018-08-17T11:56:27.628Z,989.11
2018-08-17T11:57:27.627Z,989.1
2018-08-17T11:58:27.631Z,989.13
2018-08-17T11:59:27.647Z,989.14
2018-08-17T12:00:27.646Z,989.12
2018-08-17T12:01:27.651Z,989.14
2018-08-17T12:02:27.669Z,989.13
2018-08-17T12:03:27.663Z,989.09
2018-08-17T12:04:27.669Z,989.09
2018-08-17T12:05:27.672Z,989.08
2018-08-17T12:06:27.701Z,989.09
2018-08-17T12:07:27.684Z,989.08
2018-08-17T12:08:27.755Z,989.06
2018-08-17T12:09:27.697Z,989.05
2018-08-17T12:10:27.708Z,989.06
2018-08-17T12:11:27.706Z,989.06
2018-08-17T12:12:27.711Z,989.05
2018-08-17T12:13:27.720Z,989.05
2018-08-17T12:14:27.724Z,989.09
2018-08-17T12:15:27.744Z,989.04
2018-08-17T12:16:27.745Z,989.02
2018-08-17T12:17:27.758Z,989.03
2018-08-17T12:18:27.744Z,988.99
2018-08-17T12:19:27.753Z,988.99
2018-08-17T12:20:27.759Z,988.98
2018-08-17T12:21:27.763Z,988.95
2018-08-17T12:22:28.579Z,988.96
2018-08-17T12:23:27.774Z,988.94
2018-08-17T12:24:27.889Z,988.91
2018-08-17T12:25:27.792Z,988.91
2018-08-17T12:26:27.791Z,988.88
2018-08-17T12:27:27.800Z,988.89
2018-08-17T12:28:27.822Z,988.85
2018-08-17T12:29:27.809Z,988.87
2018-08-17T12:30:27.817Z,988.92
2018-08-17T12:31:27.822Z,988.89